sensor_id;sensor_type;location;lat;lon;timestamp;temperature;humidity
31735;DHT22;18313;48.518;9.124;2023-11-21T00:01:17;8.40;99.90
31735;DHT22;18313;48.518;9.124;2023-11-21T00:03:44;8.40;99.90
31735;DHT22;18313;48.518;9.124;2023-11-21T00:06:11;8.40;99.90
31735;DHT22;18313;48.518;9.124;2023-11-21T00:08:39;8.30;99.90
31735;DHT22;18313;48.518;9.124;2023-11-21T00:11:06;8.30;99.90
31735;DHT22;18313;48.518;9.124;2023-11-21T00:13:33;8.30;99.90
31735;DHT22;18313;48.518;9.124;2023-11-21T00:16:02;8.40;99.90
31735;DHT22;18313;48.518;9.124;2023-11-21T00:18:29;8.40;99.90
31735;DHT22;18313;48.518;9.124;2023-11-21T00:20:56;8.40;99.90
31735;DHT22;18313;48.518;9.124;2023-11-21T00:23:25;8.40;99.90
31735;DHT22;18313;48.518;9.124;2023-11-21T00:25:52;8.50;99.90
31735;DHT22;18313;48.518;9.124;2023-11-21T00:28:20;8.50;99.90
31735;DHT22;18313;48.518;9.124;2023-11-21T00:30:47;8.50;99.90
31735;DHT22;18313;48.518;9.124;2023-11-21T00:33:14;8.60;99.90
31735;DHT22;18313;48.518;9.124;2023-11-21T00:35:41;8.60;99.90
31735;DHT22;18313;48.518;9.124;2023-11-21T00:38:08;8.60;99.90
31735;DHT22;18313;48.518;9.124;2023-11-21T00:40:35;8.70;99.90
31735;DHT22;18313;48.518;9.124;2023-11-21T00:43:03;8.60;99.90
31735;DHT22;18313;48.518;9.124;2023-11-21T00:45:32;8.60;99.90
31735;DHT22;18313;48.518;9.124;2023-11-21T00:47:59;8.50;99.90
31735;DHT22;18313;48.518;9.124;2023-11-21T00:50:27;8.40;99.90
31735;DHT22;18313;48.518;9.124;2023-11-21T00:52:54;8.40;99.90
31735;DHT22;18313;48.518;9.124;2023-11-21T00:55:21;8.40;99.90
31735;DHT22;18313;48.518;9.124;2023-11-21T00:57:49;8.40;99.90
31735;DHT22;18313;48.518;9.124;2023-11-21T01:00:16;8.30;99.90
31735;DHT22;18313;48.518;9.124;2023-11-21T01:02:44;8.30;99.90
31735;DHT22;18313;48.518;9.124;2023-11-21T01:05:12;8.40;99.90
31735;DHT22;18313;48.518;9.124;2023-11-21T01:07:39;8.40;99.90
31735;DHT22;18313;48.518;9.124;2023-11-21T01:10:07;8.40;99.90
31735;DHT22;18313;48.518;9.124;2023-11-21T01:12:36;8.40;99.90
31735;DHT22;18313;48.518;9.124;2023-11-21T01:15:07;8.50;99.90
31735;DHT22;18313;48.518;9.124;2023-11-21T01:17:35;8.50;99.90
31735;DHT22;18313;48.518;9.124;2023-11-21T01:20:03;8.60;99.90
31735;DHT22;18313;48.518;9.124;2023-11-21T01:22:33;8.50;99.90
31735;DHT22;18313;48.518;9.124;2023-11-21T01:25:00;8.50;99.90
31735;DHT22;18313;48.518;9.124;2023-11-21T01:27:27;8.50;99.90
31735;DHT22;18313;48.518;9.124;2023-11-21T01:29:54;8.50;99.90
31735;DHT22;18313;48.518;9.124;2023-11-21T01:32:21;8.40;99.90
31735;DHT22;18313;48.518;9.124;2023-11-21T01:34:50;8.40;99.90
31735;DHT22;18313;48.518;9.124;2023-11-21T01:37:17;8.30;99.90
31735;DHT22;18313;48.518;9.124;2023-11-21T01:39:44;8.20;99.90
31735;DHT22;18313;48.518;9.124;2023-11-21T01:42:11;8.20;99.90
31735;DHT22;18313;48.518;9.124;2023-11-21T01:44:39;8.10;99.90
31735;DHT22;18313;48.518;9.124;2023-11-21T01:47:08;8.10;99.90
31735;DHT22;18313;48.518;9.124;2023-11-21T01:49:36;8.00;99.90
31735;DHT22;18313;48.518;9.124;2023-11-21T01:52:04;8.00;99.90
31735;DHT22;18313;48.518;9.124;2023-11-21T01:54:31;8.00;99.90
31735;DHT22;18313;48.518;9.124;2023-11-21T01:56:59;8.10;99.90
31735;DHT22;18313;48.518;9.124;2023-11-21T01:59:34;8.10;99.90
31735;DHT22;18313;48.518;9.124;2023-11-21T02:02:01;8.00;99.90
31735;DHT22;18313;48.518;9.124;2023-11-21T02:04:28;8.10;99.90
31735;DHT22;18313;48.518;9.124;2023-11-21T02:06:55;8.00;99.90
31735;DHT22;18313;48.518;9.124;2023-11-21T02:09:28;8.10;99.90
31735;DHT22;18313;48.518;9.124;2023-11-21T02:12:00;8.20;99.90
31735;DHT22;18313;48.518;9.124;2023-11-21T02:14:27;8.20;99.90
31735;DHT22;18313;48.518;9.124;2023-11-21T02:16:55;8.20;99.90
31735;DHT22;18313;48.518;9.124;2023-11-21T02:19:24;8.20;99.90
31735;DHT22;18313;48.518;9.124;2023-11-21T02:21:57;8.20;99.90
31735;DHT22;18313;48.518;9.124;2023-11-21T02:24:27;8.20;99.90
31735;DHT22;18313;48.518;9.124;2023-11-21T02:26:54;8.20;99.90
31735;DHT22;18313;48.518;9.124;2023-11-21T02:29:22;8.10;99.90
31735;DHT22;18313;48.518;9.124;2023-11-21T02:31:51;8.00;99.90
31735;DHT22;18313;48.518;9.124;2023-11-21T02:34:19;8.00;99.90
31735;DHT22;18313;48.518;9.124;2023-11-21T02:36:47;7.90;99.90
31735;DHT22;18313;48.518;9.124;2023-11-21T02:39:16;8.00;99.90
31735;DHT22;18313;48.518;9.124;2023-11-21T02:41:44;8.00;99.90
31735;DHT22;18313;48.518;9.124;2023-11-21T02:44:11;8.00;99.90
31735;DHT22;18313;48.518;9.124;2023-11-21T02:46:38;8.00;99.90
31735;DHT22;18313;48.518;9.124;2023-11-21T02:49:06;7.90;99.90
31735;DHT22;18313;48.518;9.124;2023-11-21T02:51:33;7.90;99.90
31735;DHT22;18313;48.518;9.124;2023-11-21T02:54:01;7.90;99.90
31735;DHT22;18313;48.518;9.124;2023-11-21T02:56:30;8.00;99.90
31735;DHT22;18313;48.518;9.124;2023-11-21T02:58:57;8.00;99.90
31735;DHT22;18313;48.518;9.124;2023-11-21T03:01:24;8.00;99.90
31735;DHT22;18313;48.518;9.124;2023-11-21T03:03:52;8.00;99.90
31735;DHT22;18313;48.518;9.124;2023-11-21T03:06:20;8.00;99.90
31735;DHT22;18313;48.518;9.124;2023-11-21T03:08:47;8.10;99.90
31735;DHT22;18313;48.518;9.124;2023-11-21T03:11:14;8.20;99.90
31735;DHT22;18313;48.518;9.124;2023-11-21T03:13:42;8.10;99.90
31735;DHT22;18313;48.518;9.124;2023-11-21T03:16:09;8.20;99.90
31735;DHT22;18313;48.518;9.124;2023-11-21T03:18:40;8.20;99.90
31735;DHT22;18313;48.518;9.124;2023-11-21T03:21:07;8.30;99.90
31735;DHT22;18313;48.518;9.124;2023-11-21T03:23:37;8.20;99.90
31735;DHT22;18313;48.518;9.124;2023-11-21T03:26:05;8.20;99.90
31735;DHT22;18313;48.518;9.124;2023-11-21T03:28:35;8.20;99.90
31735;DHT22;18313;48.518;9.124;2023-11-21T03:31:02;8.20;99.90
31735;DHT22;18313;48.518;9.124;2023-11-21T03:33:29;8.30;99.90
31735;DHT22;18313;48.518;9.124;2023-11-21T03:35:56;8.40;99.90
31735;DHT22;18313;48.518;9.124;2023-11-21T03:38:23;8.40;99.90
31735;DHT22;18313;48.518;9.124;2023-11-21T03:40:50;8.50;99.90
31735;DHT22;18313;48.518;9.124;2023-11-21T03:43:17;8.50;99.90
31735;DHT22;18313;48.518;9.124;2023-11-21T03:45:44;8.50;99.90
31735;DHT22;18313;48.518;9.124;2023-11-21T03:48:12;8.40;99.90
31735;DHT22;18313;48.518;9.124;2023-11-21T03:50:39;8.30;99.90
31735;DHT22;18313;48.518;9.124;2023-11-21T03:53:06;8.20;99.90
31735;DHT22;18313;48.518;9.124;2023-11-21T03:55:33;8.10;99.90
31735;DHT22;18313;48.518;9.124;2023-11-21T03:58:00;8.00;99.90
31735;DHT22;18313;48.518;9.124;2023-11-21T04:00:28;8.10;99.90
31735;DHT22;18313;48.518;9.124;2023-11-21T04:02:55;8.10;99.90
31735;DHT22;18313;48.518;9.124;2023-11-21T04:05:23;8.10;99.90
31735;DHT22;18313;48.518;9.124;2023-11-21T04:07:50;8.10;99.90
31735;DHT22;18313;48.518;9.124;2023-11-21T04:10:18;8.10;99.90
31735;DHT22;18313;48.518;9.124;2023-11-21T04:12:45;8.10;99.90
31735;DHT22;18313;48.518;9.124;2023-11-21T04:15:12;8.10;99.90
31735;DHT22;18313;48.518;9.124;2023-11-21T04:17:41;8.00;99.90
31735;DHT22;18313;48.518;9.124;2023-11-21T04:20:09;8.00;99.90
31735;DHT22;18313;48.518;9.124;2023-11-21T04:22:40;7.90;99.90
31735;DHT22;18313;48.518;9.124;2023-11-21T04:25:13;8.00;99.90
31735;DHT22;18313;48.518;9.124;2023-11-21T04:27:40;7.90;99.90
31735;DHT22;18313;48.518;9.124;2023-11-21T04:30:11;8.00;99.90
31735;DHT22;18313;48.518;9.124;2023-11-21T04:32:38;8.00;99.90
31735;DHT22;18313;48.518;9.124;2023-11-21T04:35:09;8.00;99.90
31735;DHT22;18313;48.518;9.124;2023-11-21T04:37:36;8.10;99.90
31735;DHT22;18313;48.518;9.124;2023-11-21T04:40:04;8.00;99.90
31735;DHT22;18313;48.518;9.124;2023-11-21T04:42:37;8.10;99.90
31735;DHT22;18313;48.518;9.124;2023-11-21T04:45:05;8.20;99.90
31735;DHT22;18313;48.518;9.124;2023-11-21T04:47:36;8.20;99.90
31735;DHT22;18313;48.518;9.124;2023-11-21T04:50:04;8.10;99.90
31735;DHT22;18313;48.518;9.124;2023-11-21T04:52:33;8.00;99.90
31735;DHT22;18313;48.518;9.124;2023-11-21T04:55:00;8.00;99.90
31735;DHT22;18313;48.518;9.124;2023-11-21T04:57:29;7.90;99.90
31735;DHT22;18313;48.518;9.124;2023-11-21T04:59:56;7.90;99.90
31735;DHT22;18313;48.518;9.124;2023-11-21T05:02:23;7.80;99.90
31735;DHT22;18313;48.518;9.124;2023-11-21T05:05:04;7.80;99.90
31735;DHT22;18313;48.518;9.124;2023-11-21T05:07:33;7.80;99.90
31735;DHT22;18313;48.518;9.124;2023-11-21T05:10:05;7.80;99.90
31735;DHT22;18313;48.518;9.124;2023-11-21T05:12:35;7.80;99.90
31735;DHT22;18313;48.518;9.124;2023-11-21T05:15:07;7.80;99.90
31735;DHT22;18313;48.518;9.124;2023-11-21T05:17:38;7.80;99.90
31735;DHT22;18313;48.518;9.124;2023-11-21T05:20:12;7.80;99.90
31735;DHT22;18313;48.518;9.124;2023-11-21T05:22:40;7.80;99.90
31735;DHT22;18313;48.518;9.124;2023-11-21T05:25:09;7.90;99.90
31735;DHT22;18313;48.518;9.124;2023-11-21T05:27:37;8.00;99.90
31735;DHT22;18313;48.518;9.124;2023-11-21T05:30:06;8.10;99.90
31735;DHT22;18313;48.518;9.124;2023-11-21T05:32:36;8.00;99.90
31735;DHT22;18313;48.518;9.124;2023-11-21T05:35:03;8.00;99.90
31735;DHT22;18313;48.518;9.124;2023-11-21T05:37:30;8.00;99.90
31735;DHT22;18313;48.518;9.124;2023-11-21T05:39:58;8.00;99.90
31735;DHT22;18313;48.518;9.124;2023-11-21T05:42:25;8.00;99.90
31735;DHT22;18313;48.518;9.124;2023-11-21T05:44:52;8.00;99.90
31735;DHT22;18313;48.518;9.124;2023-11-21T05:47:19;8.00;99.90
31735;DHT22;18313;48.518;9.124;2023-11-21T05:49:46;8.00;99.90
31735;DHT22;18313;48.518;9.124;2023-11-21T05:52:17;8.00;99.90
31735;DHT22;18313;48.518;9.124;2023-11-21T05:54:45;8.00;99.90
31735;DHT22;18313;48.518;9.124;2023-11-21T05:57:12;8.00;99.90
31735;DHT22;18313;48.518;9.124;2023-11-21T05:59:39;8.00;99.90
31735;DHT22;18313;48.518;9.124;2023-11-21T06:02:07;8.00;99.90
31735;DHT22;18313;48.518;9.124;2023-11-21T06:04:34;8.00;99.90
31735;DHT22;18313;48.518;9.124;2023-11-21T06:07:02;7.90;99.90
31735;DHT22;18313;48.518;9.124;2023-11-21T06:09:29;7.90;99.90
31735;DHT22;18313;48.518;9.124;2023-11-21T06:11:56;7.90;99.90
31735;DHT22;18313;48.518;9.124;2023-11-21T06:14:24;7.80;99.90
31735;DHT22;18313;48.518;9.124;2023-11-21T06:16:51;7.80;99.90
31735;DHT22;18313;48.518;9.124;2023-11-21T06:19:19;7.80;99.90
31735;DHT22;18313;48.518;9.124;2023-11-21T06:21:46;7.80;99.90
31735;DHT22;18313;48.518;9.124;2023-11-21T06:24:14;7.70;99.90
31735;DHT22;18313;48.518;9.124;2023-11-21T06:26:42;7.70;99.90
31735;DHT22;18313;48.518;9.124;2023-11-21T06:29:11;7.70;99.90
31735;DHT22;18313;48.518;9.124;2023-11-21T06:31:38;7.70;99.90
31735;DHT22;18313;48.518;9.124;2023-11-21T06:34:06;7.60;99.90
31735;DHT22;18313;48.518;9.124;2023-11-21T06:36:34;7.60;99.90
31735;DHT22;18313;48.518;9.124;2023-11-21T06:39:01;7.60;99.90
31735;DHT22;18313;48.518;9.124;2023-11-21T06:41:28;7.60;99.90
31735;DHT22;18313;48.518;9.124;2023-11-21T06:43:56;7.60;99.90
31735;DHT22;18313;48.518;9.124;2023-11-21T06:46:26;7.60;99.90
31735;DHT22;18313;48.518;9.124;2023-11-21T06:48:53;7.60;99.90
31735;DHT22;18313;48.518;9.124;2023-11-21T06:51:21;7.60;99.90
31735;DHT22;18313;48.518;9.124;2023-11-21T06:53:48;7.50;99.90
31735;DHT22;18313;48.518;9.124;2023-11-21T06:56:19;7.40;99.90
31735;DHT22;18313;48.518;9.124;2023-11-21T06:58:46;7.40;99.90
31735;DHT22;18313;48.518;9.124;2023-11-21T07:01:13;7.50;99.90
31735;DHT22;18313;48.518;9.124;2023-11-21T07:03:41;7.50;99.90
31735;DHT22;18313;48.518;9.124;2023-11-21T07:06:09;7.50;99.90
31735;DHT22;18313;48.518;9.124;2023-11-21T07:08:36;7.60;99.90
31735;DHT22;18313;48.518;9.124;2023-11-21T07:11:04;7.60;99.90
31735;DHT22;18313;48.518;9.124;2023-11-21T07:13:31;7.60;99.90
31735;DHT22;18313;48.518;9.124;2023-11-21T07:15:59;7.60;99.90
31735;DHT22;18313;48.518;9.124;2023-11-21T07:18:26;7.80;99.90
31735;DHT22;18313;48.518;9.124;2023-11-21T07:20:54;7.80;99.90
31735;DHT22;18313;48.518;9.124;2023-11-21T07:23:21;7.80;99.90
31735;DHT22;18313;48.518;9.124;2023-11-21T07:25:49;8.00;99.90
31735;DHT22;18313;48.518;9.124;2023-11-21T07:28:16;8.00;99.90
31735;DHT22;18313;48.518;9.124;2023-11-21T07:30:43;7.90;99.90
31735;DHT22;18313;48.518;9.124;2023-11-21T07:33:10;8.00;99.90
31735;DHT22;18313;48.518;9.124;2023-11-21T07:35:37;7.90;99.90
31735;DHT22;18313;48.518;9.124;2023-11-21T07:38:05;7.80;99.90
31735;DHT22;18313;48.518;9.124;2023-11-21T07:40:32;7.90;99.90
31735;DHT22;18313;48.518;9.124;2023-11-21T07:42:59;8.00;99.90
31735;DHT22;18313;48.518;9.124;2023-11-21T07:45:26;8.10;99.90
31735;DHT22;18313;48.518;9.124;2023-11-21T07:47:57;8.20;99.90
31735;DHT22;18313;48.518;9.124;2023-11-21T07:50:24;8.20;99.90
31735;DHT22;18313;48.518;9.124;2023-11-21T07:52:53;8.10;99.90
31735;DHT22;18313;48.518;9.124;2023-11-21T07:55:21;8.10;99.90
31735;DHT22;18313;48.518;9.124;2023-11-21T07:57:48;8.10;99.90
31735;DHT22;18313;48.518;9.124;2023-11-21T08:00:16;8.10;99.90
31735;DHT22;18313;48.518;9.124;2023-11-21T08:02:43;8.20;99.90
31735;DHT22;18313;48.518;9.124;2023-11-21T08:05:13;8.20;99.90
31735;DHT22;18313;48.518;9.124;2023-11-21T08:07:51;8.40;99.90
31735;DHT22;18313;48.518;9.124;2023-11-21T08:10:18;8.30;99.90
31735;DHT22;18313;48.518;9.124;2023-11-21T08:12:45;8.30;99.90
31735;DHT22;18313;48.518;9.124;2023-11-21T08:15:12;8.30;99.90
31735;DHT22;18313;48.518;9.124;2023-11-21T08:17:39;8.40;99.90
31735;DHT22;18313;48.518;9.124;2023-11-21T08:20:07;8.50;99.90
31735;DHT22;18313;48.518;9.124;2023-11-21T08:22:36;8.60;99.90
31735;DHT22;18313;48.518;9.124;2023-11-21T08:25:03;8.70;99.90
31735;DHT22;18313;48.518;9.124;2023-11-21T08:27:32;8.70;99.90
31735;DHT22;18313;48.518;9.124;2023-11-21T08:29:59;8.80;99.90
31735;DHT22;18313;48.518;9.124;2023-11-21T08:32:26;8.70;99.90
31735;DHT22;18313;48.518;9.124;2023-11-21T08:34:54;8.80;99.90
31735;DHT22;18313;48.518;9.124;2023-11-21T08:37:21;8.70;99.90
31735;DHT22;18313;48.518;9.124;2023-11-21T08:39:48;8.80;99.90
31735;DHT22;18313;48.518;9.124;2023-11-21T08:42:16;8.80;99.90
31735;DHT22;18313;48.518;9.124;2023-11-21T08:44:43;8.80;99.90
31735;DHT22;18313;48.518;9.124;2023-11-21T08:47:11;8.80;99.90
31735;DHT22;18313;48.518;9.124;2023-11-21T08:49:38;8.80;99.90
31735;DHT22;18313;48.518;9.124;2023-11-21T08:52:05;8.90;99.90
31735;DHT22;18313;48.518;9.124;2023-11-21T08:54:33;8.80;99.90
31735;DHT22;18313;48.518;9.124;2023-11-21T08:57:01;8.80;99.90
31735;DHT22;18313;48.518;9.124;2023-11-21T08:59:28;8.90;99.90
31735;DHT22;18313;48.518;9.124;2023-11-21T09:01:55;8.90;99.90
31735;DHT22;18313;48.518;9.124;2023-11-21T09:04:23;8.90;99.90
31735;DHT22;18313;48.518;9.124;2023-11-21T09:06:50;9.00;99.90
31735;DHT22;18313;48.518;9.124;2023-11-21T09:09:18;9.00;99.90
31735;DHT22;18313;48.518;9.124;2023-11-21T09:11:46;8.90;99.90
31735;DHT22;18313;48.518;9.124;2023-11-21T09:14:16;9.00;99.90
31735;DHT22;18313;48.518;9.124;2023-11-21T09:16:44;9.00;99.90
31735;DHT22;18313;48.518;9.124;2023-11-21T09:19:12;9.00;99.90
31735;DHT22;18313;48.518;9.124;2023-11-21T09:21:41;9.10;99.90
31735;DHT22;18313;48.518;9.124;2023-11-21T09:24:08;9.30;99.90
31735;DHT22;18313;48.518;9.124;2023-11-21T09:26:35;9.20;99.90
31735;DHT22;18313;48.518;9.124;2023-11-21T09:29:03;9.20;99.90
31735;DHT22;18313;48.518;9.124;2023-11-21T09:31:30;9.10;99.90
31735;DHT22;18313;48.518;9.124;2023-11-21T09:33:58;9.20;99.90
31735;DHT22;18313;48.518;9.124;2023-11-21T09:36:25;9.30;99.90
31735;DHT22;18313;48.518;9.124;2023-11-21T09:38:54;9.40;99.90
31735;DHT22;18313;48.518;9.124;2023-11-21T09:41:33;9.40;99.90
31735;DHT22;18313;48.518;9.124;2023-11-21T09:44:02;9.40;99.90
31735;DHT22;18313;48.518;9.124;2023-11-21T09:46:35;9.50;99.90
31735;DHT22;18313;48.518;9.124;2023-11-21T09:49:09;9.60;99.90
31735;DHT22;18313;48.518;9.124;2023-11-21T09:51:42;9.90;99.90
31735;DHT22;18313;48.518;9.124;2023-11-21T09:54:10;9.90;99.90
31735;DHT22;18313;48.518;9.124;2023-11-21T09:56:38;9.80;99.90
31735;DHT22;18313;48.518;9.124;2023-11-21T09:59:06;9.80;99.90
31735;DHT22;18313;48.518;9.124;2023-11-21T10:01:38;9.70;99.90
31735;DHT22;18313;48.518;9.124;2023-11-21T10:04:10;9.70;99.90
31735;DHT22;18313;48.518;9.124;2023-11-21T10:06:41;9.60;99.90
31735;DHT22;18313;48.518;9.124;2023-11-21T10:09:10;9.50;99.90
31735;DHT22;18313;48.518;9.124;2023-11-21T10:11:41;9.60;99.90
31735;DHT22;18313;48.518;9.124;2023-11-21T10:14:11;9.60;99.90
31735;DHT22;18313;48.518;9.124;2023-11-21T10:16:44;9.80;99.90
31735;DHT22;18313;48.518;9.124;2023-11-21T10:19:14;9.80;99.90
31735;DHT22;18313;48.518;9.124;2023-11-21T10:21:43;9.80;99.90
31735;DHT22;18313;48.518;9.124;2023-11-21T10:24:10;9.90;99.90
31735;DHT22;18313;48.518;9.124;2023-11-21T10:26:39;9.90;99.90
31735;DHT22;18313;48.518;9.124;2023-11-21T10:29:19;9.90;99.90
31735;DHT22;18313;48.518;9.124;2023-11-21T10:31:51;9.80;99.90
31735;DHT22;18313;48.518;9.124;2023-11-21T10:34:20;9.80;99.90
31735;DHT22;18313;48.518;9.124;2023-11-21T10:36:48;9.70;99.90
31735;DHT22;18313;48.518;9.124;2023-11-21T10:39:20;9.90;99.90
31735;DHT22;18313;48.518;9.124;2023-11-21T10:41:48;10.00;99.90
31735;DHT22;18313;48.518;9.124;2023-11-21T10:44:16;9.90;99.90
31735;DHT22;18313;48.518;9.124;2023-11-21T10:46:52;9.80;99.90
31735;DHT22;18313;48.518;9.124;2023-11-21T10:49:25;9.80;99.90
31735;DHT22;18313;48.518;9.124;2023-11-21T10:51:53;9.70;99.90
31735;DHT22;18313;48.518;9.124;2023-11-21T10:54:21;9.80;99.90
31735;DHT22;18313;48.518;9.124;2023-11-21T10:56:50;9.80;99.90
31735;DHT22;18313;48.518;9.124;2023-11-21T10:59:18;9.70;99.90
31735;DHT22;18313;48.518;9.124;2023-11-21T11:01:48;9.60;99.90
31735;DHT22;18313;48.518;9.124;2023-11-21T11:04:18;9.70;99.90
31735;DHT22;18313;48.518;9.124;2023-11-21T11:06:51;9.90;99.90
31735;DHT22;18313;48.518;9.124;2023-11-21T11:09:20;9.80;99.90
31735;DHT22;18313;48.518;9.124;2023-11-21T11:11:48;9.60;99.90
31735;DHT22;18313;48.518;9.124;2023-11-21T11:14:16;9.60;99.90
31735;DHT22;18313;48.518;9.124;2023-11-21T11:16:44;9.70;99.90
31735;DHT22;18313;48.518;9.124;2023-11-21T11:19:12;9.60;99.90
31735;DHT22;18313;48.518;9.124;2023-11-21T11:24:44;9.60;99.90
31735;DHT22;18313;48.518;9.124;2023-11-21T11:32:40;9.50;99.90
31735;DHT22;18313;48.518;9.124;2023-11-21T11:37:51;9.50;99.90
31735;DHT22;18313;48.518;9.124;2023-11-21T11:40:18;9.50;99.90
31735;DHT22;18313;48.518;9.124;2023-11-21T11:42:58;9.60;99.90
31735;DHT22;18313;48.518;9.124;2023-11-21T11:45:32;9.70;99.90
31735;DHT22;18313;48.518;9.124;2023-11-21T11:48:01;9.70;99.90
31735;DHT22;18313;48.518;9.124;2023-11-21T11:50:28;9.70;99.90
31735;DHT22;18313;48.518;9.124;2023-11-21T11:53:14;9.90;99.90
31735;DHT22;18313;48.518;9.124;2023-11-21T11:55:42;9.90;99.90
31735;DHT22;18313;48.518;9.124;2023-11-21T11:58:10;9.80;99.90
31735;DHT22;18313;48.518;9.124;2023-11-21T12:00:38;9.80;99.90
31735;DHT22;18313;48.518;9.124;2023-11-21T12:03:09;9.80;99.90
31735;DHT22;18313;48.518;9.124;2023-11-21T12:05:36;9.80;99.90
31735;DHT22;18313;48.518;9.124;2023-11-21T12:08:07;9.90;99.90
31735;DHT22;18313;48.518;9.124;2023-11-21T12:10:36;9.80;99.90
31735;DHT22;18313;48.518;9.124;2023-11-21T12:13:07;9.80;99.90
31735;DHT22;18313;48.518;9.124;2023-11-21T12:15:35;9.90;99.90
31735;DHT22;18313;48.518;9.124;2023-11-21T12:18:04;9.90;99.90
31735;DHT22;18313;48.518;9.124;2023-11-21T12:20:31;9.90;99.90
31735;DHT22;18313;48.518;9.124;2023-11-21T12:22:59;9.90;99.90
31735;DHT22;18313;48.518;9.124;2023-11-21T12:25:28;9.80;99.90
31735;DHT22;18313;48.518;9.124;2023-11-21T12:27:56;9.80;99.90
31735;DHT22;18313;48.518;9.124;2023-11-21T12:30:26;9.90;99.90
31735;DHT22;18313;48.518;9.124;2023-11-21T12:32:55;9.80;99.90
31735;DHT22;18313;48.518;9.124;2023-11-21T12:35:25;9.90;99.90
31735;DHT22;18313;48.518;9.124;2023-11-21T12:37:54;9.70;99.90
31735;DHT22;18313;48.518;9.124;2023-11-21T12:40:24;9.60;99.90
31735;DHT22;18313;48.518;9.124;2023-11-21T12:42:53;9.70;99.90
31735;DHT22;18313;48.518;9.124;2023-11-21T12:47:50;9.80;99.90
31735;DHT22;18313;48.518;9.124;2023-11-21T12:50:20;9.80;99.90
31735;DHT22;18313;48.518;9.124;2023-11-21T12:52:51;9.80;99.90
31735;DHT22;18313;48.518;9.124;2023-11-21T12:55:21;9.60;99.90
31735;DHT22;18313;48.518;9.124;2023-11-21T12:57:50;9.40;99.90
31735;DHT22;18313;48.518;9.124;2023-11-21T13:00:38;9.50;99.90
31735;DHT22;18313;48.518;9.124;2023-11-21T13:03:06;9.70;99.90
31735;DHT22;18313;48.518;9.124;2023-11-21T13:05:35;9.70;99.90
31735;DHT22;18313;48.518;9.124;2023-11-21T13:08:07;9.60;99.90
31735;DHT22;18313;48.518;9.124;2023-11-21T13:10:36;9.60;99.90
31735;DHT22;18313;48.518;9.124;2023-11-21T13:13:05;9.60;99.90
31735;DHT22;18313;48.518;9.124;2023-11-21T13:15:39;9.70;99.90
31735;DHT22;18313;48.518;9.124;2023-11-21T13:18:07;9.60;99.90
31735;DHT22;18313;48.518;9.124;2023-11-21T13:20:37;9.70;99.90
31735;DHT22;18313;48.518;9.124;2023-11-21T13:23:10;9.70;99.90
31735;DHT22;18313;48.518;9.124;2023-11-21T13:25:43;9.60;99.90
31735;DHT22;18313;48.518;9.124;2023-11-21T13:28:20;9.60;99.90
31735;DHT22;18313;48.518;9.124;2023-11-21T13:30:48;9.80;99.90
31735;DHT22;18313;48.518;9.124;2023-11-21T13:33:19;9.90;99.90
31735;DHT22;18313;48.518;9.124;2023-11-21T13:35:48;9.90;99.90
31735;DHT22;18313;48.518;9.124;2023-11-21T13:38:18;10.00;99.90
31735;DHT22;18313;48.518;9.124;2023-11-21T13:40:50;9.90;99.90
31735;DHT22;18313;48.518;9.124;2023-11-21T13:43:22;9.90;99.90
31735;DHT22;18313;48.518;9.124;2023-11-21T13:45:52;9.90;99.90
31735;DHT22;18313;48.518;9.124;2023-11-21T13:48:30;9.90;99.90
31735;DHT22;18313;48.518;9.124;2023-11-21T13:51:08;9.90;99.90
31735;DHT22;18313;48.518;9.124;2023-11-21T13:53:40;9.80;99.90
31735;DHT22;18313;48.518;9.124;2023-11-21T13:56:09;9.80;99.90
31735;DHT22;18313;48.518;9.124;2023-11-21T13:58:36;9.80;99.90
31735;DHT22;18313;48.518;9.124;2023-11-21T14:01:20;9.70;99.90
31735;DHT22;18313;48.518;9.124;2023-11-21T14:03:58;10.00;99.90
31735;DHT22;18313;48.518;9.124;2023-11-21T14:06:46;10.00;99.90
31735;DHT22;18313;48.518;9.124;2023-11-21T14:09:21;9.90;99.90
31735;DHT22;18313;48.518;9.124;2023-11-21T14:11:54;10.00;99.90
31735;DHT22;18313;48.518;9.124;2023-11-21T14:14:24;10.00;99.90
31735;DHT22;18313;48.518;9.124;2023-11-21T14:16:52;10.10;99.90
31735;DHT22;18313;48.518;9.124;2023-11-21T14:19:19;10.10;99.90
31735;DHT22;18313;48.518;9.124;2023-11-21T14:21:47;10.10;99.90
31735;DHT22;18313;48.518;9.124;2023-11-21T14:24:17;10.10;99.90
31735;DHT22;18313;48.518;9.124;2023-11-21T14:26:46;9.90;99.90
31735;DHT22;18313;48.518;9.124;2023-11-21T14:29:15;9.90;99.90
31735;DHT22;18313;48.518;9.124;2023-11-21T14:31:47;9.90;99.90
31735;DHT22;18313;48.518;9.124;2023-11-21T14:34:14;9.90;99.90
31735;DHT22;18313;48.518;9.124;2023-11-21T14:36:46;10.00;99.90
31735;DHT22;18313;48.518;9.124;2023-11-21T14:39:13;9.90;99.90
31735;DHT22;18313;48.518;9.124;2023-11-21T14:41:50;9.90;99.90
31735;DHT22;18313;48.518;9.124;2023-11-21T14:44:20;9.80;99.90
31735;DHT22;18313;48.518;9.124;2023-11-21T14:46:50;9.70;99.90
31735;DHT22;18313;48.518;9.124;2023-11-21T14:49:19;9.70;99.90
31735;DHT22;18313;48.518;9.124;2023-11-21T14:51:52;9.60;99.90
31735;DHT22;18313;48.518;9.124;2023-11-21T14:54:25;9.60;99.90
31735;DHT22;18313;48.518;9.124;2023-11-21T14:57:10;9.60;99.90
31735;DHT22;18313;48.518;9.124;2023-11-21T14:59:44;9.60;99.90
31735;DHT22;18313;48.518;9.124;2023-11-21T15:02:25;9.60;99.90
31735;DHT22;18313;48.518;9.124;2023-11-21T15:05:11;9.60;99.90
31735;DHT22;18313;48.518;9.124;2023-11-21T15:07:43;9.50;99.90
31735;DHT22;18313;48.518;9.124;2023-11-21T15:10:12;9.50;99.90
31735;DHT22;18313;48.518;9.124;2023-11-21T15:12:43;9.50;99.90
31735;DHT22;18313;48.518;9.124;2023-11-21T15:15:11;9.50;99.90
31735;DHT22;18313;48.518;9.124;2023-11-21T15:17:41;9.50;99.90
31735;DHT22;18313;48.518;9.124;2023-11-21T15:20:10;9.50;99.90
31735;DHT22;18313;48.518;9.124;2023-11-21T15:22:39;9.40;99.90
31735;DHT22;18313;48.518;9.124;2023-11-21T15:25:07;9.30;99.90
31735;DHT22;18313;48.518;9.124;2023-11-21T15:27:37;9.30;99.90
31735;DHT22;18313;48.518;9.124;2023-11-21T15:30:05;9.40;99.90
31735;DHT22;18313;48.518;9.124;2023-11-21T15:32:33;9.30;99.90
31735;DHT22;18313;48.518;9.124;2023-11-21T15:35:00;9.30;99.90
31735;DHT22;18313;48.518;9.124;2023-11-21T15:37:28;9.20;99.90
31735;DHT22;18313;48.518;9.124;2023-11-21T15:39:56;9.20;99.90
31735;DHT22;18313;48.518;9.124;2023-11-21T15:42:23;9.10;99.90
31735;DHT22;18313;48.518;9.124;2023-11-21T15:44:50;9.10;99.90
31735;DHT22;18313;48.518;9.124;2023-11-21T15:47:17;9.10;99.90
31735;DHT22;18313;48.518;9.124;2023-11-21T15:49:45;9.10;99.90
31735;DHT22;18313;48.518;9.124;2023-11-21T15:52:16;9.10;99.90
31735;DHT22;18313;48.518;9.124;2023-11-21T15:54:44;9.00;99.90
31735;DHT22;18313;48.518;9.124;2023-11-21T15:57:13;9.00;99.90
31735;DHT22;18313;48.518;9.124;2023-11-21T15:59:41;9.00;99.90
31735;DHT22;18313;48.518;9.124;2023-11-21T16:02:10;8.90;99.90
31735;DHT22;18313;48.518;9.124;2023-11-21T16:04:39;9.00;99.90
31735;DHT22;18313;48.518;9.124;2023-11-21T16:07:09;8.90;99.90
31735;DHT22;18313;48.518;9.124;2023-11-21T16:09:38;8.80;99.90